sensor_id;sensor_type;location;lat;lon;timestamp;pressure;altitude;pressure_sealevel;temperature;humidity
50125;BME280;36023;48.670;6.184;2023-04-28T00:01:51;98730.63;;;18.95;43.77
50125;BME280;36023;48.670;6.184;2023-04-28T00:04:19;98734.94;;;18.96;43.71
50125;BME280;36023;48.670;6.184;2023-04-28T00:06:45;98728.84;;;18.95;43.65
50125;BME280;36023;48.670;6.184;2023-04-28T00:09:12;98723.59;;;18.95;43.71
50125;BME280;36023;48.670;6.184;2023-04-28T00:11:38;98724.44;;;18.96;43.89
50125;BME280;36023;48.670;6.184;2023-04-28T00:14:04;98721.81;;;18.96;43.77
50125;BME280;36023;48.670;6.184;2023-04-28T00:16:30;98734.00;;;18.97;43.86
50125;BME280;36023;48.670;6.184;2023-04-28T00:18:57;98724.44;;;18.96;44.05
50125;BME280;36023;48.670;6.184;2023-04-28T00:21:22;98718.34;;;18.95;43.78
50125;BME280;36023;48.670;6.184;2023-04-28T00:23:49;98725.28;;;18.96;43.82
50125;BME280;36023;48.670;6.184;2023-04-28T00:26:14;98713.94;;;18.96;43.84
50125;BME280;36023;48.670;6.184;2023-04-28T00:28:43;98707.84;;;18.95;43.97
50125;BME280;36023;48.670;6.184;2023-04-28T00:31:10;98703.44;;;18.96;43.88
50125;BME280;36023;48.670;6.184;2023-04-28T00:33:37;98711.31;;;18.96;43.75
50125;BME280;36023;48.670;6.184;2023-04-28T00:36:03;98712.16;;;18.96;43.95
50125;BME280;36023;48.670;6.184;2023-04-28T00:38:30;98703.44;;;18.96;44.07
50125;BME280;36023;48.670;6.184;2023-04-28T00:40:55;98705.13;;;18.97;44.03
50125;BME280;36023;48.670;6.184;2023-04-28T00:43:21;98700.81;;;18.96;43.93
50125;BME280;36023;48.670;6.184;2023-04-28T00:45:48;98702.59;;;18.95;43.97
50125;BME280;36023;48.670;6.184;2023-04-28T00:48:14;98702.59;;;18.95;43.92
50125;BME280;36023;48.670;6.184;2023-04-28T00:50:43;98698.19;;;18.96;44.11
50125;BME280;36023;48.670;6.184;2023-04-28T00:53:10;98699.13;;;18.95;44.01
50125;BME280;36023;48.670;6.184;2023-04-28T00:55:36;98706.06;;;18.96;44.10
50125;BME280;36023;48.670;6.184;2023-04-28T00:58:02;98701.75;;;18.95;44.04
50125;BME280;36023;48.670;6.184;2023-04-28T01:00:29;98696.50;;;18.95;44.05
50125;BME280;36023;48.670;6.184;2023-04-28T01:02:56;98697.34;;;18.95;43.98
50125;BME280;36023;48.670;6.184;2023-04-28T01:05:24;98691.25;;;18.95;43.98
50125;BME280;36023;48.670;6.184;2023-04-28T01:07:51;98684.34;;;18.93;43.92
50125;BME280;36023;48.670;6.184;2023-04-28T01:10:17;98683.38;;;18.95;43.90
50125;BME280;36023;48.670;6.184;2023-04-28T01:12:42;98686.00;;;18.95;43.95
50125;BME280;36023;48.670;6.184;2023-04-28T01:15:15;98684.34;;;18.93;43.82
50125;BME280;36023;48.670;6.184;2023-04-28T01:17:41;98678.97;;;18.95;43.83
50125;BME280;36023;48.670;6.184;2023-04-28T01:20:07;98675.53;;;18.95;44.03
50125;BME280;36023;48.670;6.184;2023-04-28T01:22:33;98672.91;;;18.95;43.84
50125;BME280;36023;48.670;6.184;2023-04-28T01:24:59;98675.53;;;18.95;43.84
50125;BME280;36023;48.670;6.184;2023-04-28T01:27:25;98676.34;;;18.95;43.90
50125;BME280;36023;48.670;6.184;2023-04-28T01:29:51;98676.34;;;18.95;43.82
50125;BME280;36023;48.670;6.184;2023-04-28T01:32:16;98672.91;;;18.95;43.97
50125;BME280;36023;48.670;6.184;2023-04-28T01:34:42;98671.22;;;18.93;43.75
50125;BME280;36023;48.670;6.184;2023-04-28T01:37:08;98676.47;;;18.93;43.96
50125;BME280;36023;48.670;6.184;2023-04-28T01:39:35;98670.28;;;18.95;43.92
50125;BME280;36023;48.670;6.184;2023-04-28T01:42:02;98673.84;;;18.93;43.83
50125;BME280;36023;48.670;6.184;2023-04-28T01:44:28;98673.00;;;18.93;43.78
50125;BME280;36023;48.670;6.184;2023-04-28T01:46:53;98666.81;;;18.94;43.88
50125;BME280;36023;48.670;6.184;2023-04-28T01:49:21;98680.78;;;18.95;44.01
50125;BME280;36023;48.670;6.184;2023-04-28T01:51:46;98672.91;;;18.95;43.89
50125;BME280;36023;48.670;6.184;2023-04-28T01:54:12;98670.38;;;18.93;43.97
50125;BME280;36023;48.670;6.184;2023-04-28T01:56:42;98673.84;;;18.93;43.94
50125;BME280;36023;48.670;6.184;2023-04-28T01:59:08;98666.91;;;18.92;43.98
50125;BME280;36023;48.670;6.184;2023-04-28T02:01:34;98680.78;;;18.95;43.98
50125;BME280;36023;48.670;6.184;2023-04-28T02:03:59;98674.69;;;18.94;44.00
50125;BME280;36023;48.670;6.184;2023-04-28T02:06:25;98676.47;;;18.93;44.23
50125;BME280;36023;48.670;6.184;2023-04-28T02:08:52;98675.53;;;18.95;44.15
50125;BME280;36023;48.670;6.184;2023-04-28T02:11:18;98675.53;;;18.95;43.98
50125;BME280;36023;48.670;6.184;2023-04-28T02:13:43;98677.41;;;18.92;44.12
50125;BME280;36023;48.670;6.184;2023-04-28T02:16:09;98672.91;;;18.95;44.01
50125;BME280;36023;48.670;6.184;2023-04-28T02:18:35;98670.28;;;18.95;44.15
50125;BME280;36023;48.670;6.184;2023-04-28T02:21:11;98658.94;;;18.94;44.26
50125;BME280;36023;48.670;6.184;2023-04-28T02:23:38;98652.84;;;18.93;44.15
50125;BME280;36023;48.670;6.184;2023-04-28T02:26:04;98647.59;;;18.93;44.38
50125;BME280;36023;48.670;6.184;2023-04-28T02:28:30;98655.47;;;18.93;44.21
50125;BME280;36023;48.670;6.184;2023-04-28T02:31:07;98651.91;;;18.95;44.24
50125;BME280;36023;48.670;6.184;2023-04-28T02:33:33;98644.88;;;18.95;44.39
50125;BME280;36023;48.670;6.184;2023-04-28T02:35:59;98648.34;;;18.96;44.28
50125;BME280;36023;48.670;6.184;2023-04-28T02:38:25;98651.91;;;18.95;44.22
50125;BME280;36023;48.670;6.184;2023-04-28T02:41:05;98649.28;;;18.95;44.38
50125;BME280;36023;48.670;6.184;2023-04-28T02:43:32;98655.47;;;18.93;44.25
50125;BME280;36023;48.670;6.184;2023-04-28T02:45:59;98659.78;;;18.95;44.21
50125;BME280;36023;48.670;6.184;2023-04-28T02:48:25;98661.56;;;18.94;44.35
50125;BME280;36023;48.670;6.184;2023-04-28T02:50:54;98659.03;;;18.92;44.60
50125;BME280;36023;48.670;6.184;2023-04-28T02:53:21;98670.28;;;18.95;44.38
50125;BME280;36023;48.670;6.184;2023-04-28T02:55:48;98670.28;;;18.95;44.38
50125;BME280;36023;48.670;6.184;2023-04-28T02:58:15;98658.09;;;18.93;44.32
50125;BME280;36023;48.670;6.184;2023-04-28T03:00:42;98658.09;;;18.93;44.46
50125;BME280;36023;48.670;6.184;2023-04-28T03:03:08;98655.47;;;18.93;44.52
50125;BME280;36023;48.670;6.184;2023-04-28T03:05:34;98655.47;;;18.93;44.50
50125;BME280;36023;48.670;6.184;2023-04-28T03:08:00;98647.59;;;18.93;44.50
50125;BME280;36023;48.670;6.184;2023-04-28T03:10:26;98648.44;;;18.94;44.45
50125;BME280;36023;48.670;6.184;2023-04-28T03:12:51;98649.28;;;18.95;44.59
50125;BME280;36023;48.670;6.184;2023-04-28T03:15:18;98648.53;;;18.92;44.59
50125;BME280;36023;48.670;6.184;2023-04-28T03:17:44;98647.69;;;18.92;44.54
50125;BME280;36023;48.670;6.184;2023-04-28T03:20:10;98646.66;;;18.95;44.56
50125;BME280;36023;48.670;6.184;2023-04-28T03:22:36;98647.59;;;18.93;44.62
50125;BME280;36023;48.670;6.184;2023-04-28T03:25:02;98641.50;;;18.93;44.65
50125;BME280;36023;48.670;6.184;2023-04-28T03:27:33;98638.03;;;18.92;44.64
50125;BME280;36023;48.670;6.184;2023-04-28T03:29:58;98638.88;;;18.93;44.62
50125;BME280;36023;48.670;6.184;2023-04-28T03:32:24;98631.84;;;18.93;44.57
50125;BME280;36023;48.670;6.184;2023-04-28T03:34:50;98627.53;;;18.92;44.65
50125;BME280;36023;48.670;6.184;2023-04-28T03:37:15;98631.84;;;18.93;44.78
50125;BME280;36023;48.670;6.184;2023-04-28T03:39:41;98624.91;;;18.92;44.65
50125;BME280;36023;48.670;6.184;2023-04-28T03:42:07;98629.31;;;18.92;44.77
50125;BME280;36023;48.670;6.184;2023-04-28T03:44:57;98623.97;;;18.93;44.71
50125;BME280;36023;48.670;6.184;2023-04-28T03:47:22;98620.50;;;18.93;44.81
50125;BME280;36023;48.670;6.184;2023-04-28T03:49:49;98618.00;;;18.91;44.83
50125;BME280;36023;48.670;6.184;2023-04-28T03:52:16;98619.66;;;18.92;44.94
50125;BME280;36023;48.670;6.184;2023-04-28T03:54:42;98612.75;;;18.91;44.80
50125;BME280;36023;48.670;6.184;2023-04-28T03:57:09;98630.16;;;18.92;44.94
50125;BME280;36023;48.670;6.184;2023-04-28T03:59:35;98619.78;;;18.91;44.94
50125;BME280;36023;48.670;6.184;2023-04-28T04:02:01;98621.44;;;18.92;45.02
50125;BME280;36023;48.670;6.184;2023-04-28T04:04:27;98612.75;;;18.91;44.97
50125;BME280;36023;48.670;6.184;2023-04-28T04:06:56;98608.34;;;18.92;44.94
50125;BME280;36023;48.670;6.184;2023-04-28T04:09:22;98612.75;;;18.91;45.11
50125;BME280;36023;48.670;6.184;2023-04-28T04:11:49;98621.34;;;18.93;45.04
50125;BME280;36023;48.670;6.184;2023-04-28T04:14:15;98626.69;;;18.92;45.15
50125;BME280;36023;48.670;6.184;2023-04-28T04:16:41;98612.63;;;18.93;45.19
50125;BME280;36023;48.670;6.184;2023-04-28T04:19:07;98623.13;;;18.93;45.12
50125;BME280;36023;48.670;6.184;2023-04-28T04:21:39;98622.28;;;18.92;45.21
50125;BME280;36023;48.670;6.184;2023-04-28T04:24:05;98610.00;;;18.93;45.26
50125;BME280;36023;48.670;6.184;2023-04-28T04:26:31;98616.09;;;18.93;45.21
50125;BME280;36023;48.670;6.184;2023-04-28T04:28:57;98616.94;;;18.94;45.38
50125;BME280;36023;48.670;6.184;2023-04-28T04:31:23;98616.09;;;18.93;45.29
50125;BME280;36023;48.670;6.184;2023-04-28T04:33:49;98622.19;;;18.94;45.37
50125;BME280;36023;48.670;6.184;2023-04-28T04:36:17;98615.25;;;18.93;45.34
50125;BME280;36023;48.670;6.184;2023-04-28T04:38:43;98613.47;;;18.93;45.40
50125;BME280;36023;48.670;6.184;2023-04-28T04:41:14;98610.84;;;18.93;45.48
50125;BME280;36023;48.670;6.184;2023-04-28T04:43:40;98621.34;;;18.93;45.38
50125;BME280;36023;48.670;6.184;2023-04-28T04:46:08;98624.06;;;18.92;45.48
50125;BME280;36023;48.670;6.184;2023-04-28T04:48:34;98620.50;;;18.93;45.55
50125;BME280;36023;48.670;6.184;2023-04-28T04:50:59;98616.09;;;18.93;45.57
50125;BME280;36023;48.670;6.184;2023-04-28T04:53:26;98613.47;;;18.93;45.60
50125;BME280;36023;48.670;6.184;2023-04-28T04:55:54;98620.50;;;18.93;45.71
50125;BME280;36023;48.670;6.184;2023-04-28T04:58:22;98623.97;;;18.93;45.70
50125;BME280;36023;48.670;6.184;2023-04-28T05:01:06;98618.84;;;18.92;45.59
50125;BME280;36023;48.670;6.184;2023-04-28T05:03:32;98622.28;;;18.92;45.65
50125;BME280;36023;48.670;6.184;2023-04-28T05:05:58;98622.19;;;18.94;45.92
50125;BME280;36023;48.670;6.184;2023-04-28T05:08:39;98618.84;;;18.92;45.80
50125;BME280;36023;48.670;6.184;2023-04-28T05:11:05;98615.38;;;18.91;45.86
50125;BME280;36023;48.670;6.184;2023-04-28T05:13:30;98612.75;;;18.91;45.79
50125;BME280;36023;48.670;6.184;2023-04-28T05:16:00;98612.75;;;18.91;45.72
50125;BME280;36023;48.670;6.184;2023-04-28T05:18:44;98616.22;;;18.92;45.88
50125;BME280;36023;48.670;6.184;2023-04-28T05:21:10;98621.44;;;18.92;46.01
50125;BME280;36023;48.670;6.184;2023-04-28T05:23:36;98625.88;;;18.91;45.97
50125;BME280;36023;48.670;6.184;2023-04-28T05:26:03;98622.41;;;18.91;45.95
50125;BME280;36023;48.670;6.184;2023-04-28T05:28:29;98624.06;;;18.92;46.07
50125;BME280;36023;48.670;6.184;2023-04-28T05:30:57;98625.03;;;18.91;46.00
50125;BME280;36023;48.670;6.184;2023-04-28T05:33:22;98628.47;;;18.91;46.14
50125;BME280;36023;48.670;6.184;2023-04-28T05:35:48;98622.41;;;18.91;46.21
50125;BME280;36023;48.670;6.184;2023-04-28T05:38:14;98628.47;;;18.91;46.06
50125;BME280;36023;48.670;6.184;2023-04-28T05:40:41;98626.78;;;18.90;46.29
50125;BME280;36023;48.670;6.184;2023-04-28T05:43:07;98630.28;;;18.91;46.15
50125;BME280;36023;48.670;6.184;2023-04-28T05:45:34;98629.41;;;18.90;46.22
50125;BME280;36023;48.670;6.184;2023-04-28T05:47:59;98625.94;;;18.90;46.18
50125;BME280;36023;48.670;6.184;2023-04-28T05:50:27;98625.09;;;18.89;46.34
50125;BME280;36023;48.670;6.184;2023-04-28T05:52:52;98625.09;;;18.89;46.36
50125;BME280;36023;48.670;6.184;2023-04-28T05:55:18;98634.63;;;18.90;46.27
50125;BME280;36023;48.670;6.184;2023-04-28T05:57:45;98643.38;;;18.91;46.31
50125;BME280;36023;48.670;6.184;2023-04-28T06:00:13;98646.91;;;18.90;46.24
50125;BME280;36023;48.670;6.184;2023-04-28T06:02:39;98652.16;;;18.90;46.37
50125;BME280;36023;48.670;6.184;2023-04-28T06:05:06;98649.53;;;18.90;46.32
50125;BME280;36023;48.670;6.184;2023-04-28T06:07:36;98653.00;;;18.90;46.38
50125;BME280;36023;48.670;6.184;2023-04-28T06:10:02;98670.47;;;18.91;46.47
50125;BME280;36023;48.670;6.184;2023-04-28T06:12:29;98666.13;;;18.90;46.68
50125;BME280;36023;48.670;6.184;2023-04-28T06:14:55;98678.34;;;18.91;46.71
50125;BME280;36023;48.670;6.184;2023-04-28T06:17:21;98674.88;;;18.91;46.67
50125;BME280;36023;48.670;6.184;2023-04-28T06:19:47;98679.19;;;18.92;46.66
50125;BME280;36023;48.670;6.184;2023-04-28T06:22:14;98676.56;;;18.92;46.85
50125;BME280;36023;48.670;6.184;2023-04-28T06:24:40;98673.94;;;18.92;46.83
50125;BME280;36023;48.670;6.184;2023-04-28T06:27:13;98673.94;;;18.92;46.95
50125;BME280;36023;48.670;6.184;2023-04-28T06:29:39;98681.81;;;18.92;46.78
50125;BME280;36023;48.670;6.184;2023-04-28T06:32:05;98678.25;;;18.93;47.01
50125;BME280;36023;48.670;6.184;2023-04-28T06:34:30;98678.16;;;18.95;47.35
50125;BME280;36023;48.670;6.184;2023-04-28T06:36:57;98678.16;;;18.95;47.76
50125;BME280;36023;48.670;6.184;2023-04-28T06:39:25;98680.66;;;18.96;47.80
50125;BME280;36023;48.670;6.184;2023-04-28T06:41:50;98672.78;;;18.96;47.98
50125;BME280;36023;48.670;6.184;2023-04-28T06:44:17;98675.25;;;18.99;48.76
50125;BME280;36023;48.670;6.184;2023-04-28T06:46:42;98679.47;;;19.02;49.07
50125;BME280;36023;48.670;6.184;2023-04-28T06:49:10;98682.09;;;19.02;48.92
50125;BME280;36023;48.670;6.184;2023-04-28T06:51:36;98668.03;;;19.03;49.30
50125;BME280;36023;48.670;6.184;2023-04-28T06:54:01;98668.13;;;19.01;49.34
50125;BME280;36023;48.670;6.184;2023-04-28T06:56:27;98665.50;;;19.01;49.25
50125;BME280;36023;48.670;6.184;2023-04-28T06:58:55;98658.63;;;18.99;49.52
50125;BME280;36023;48.670;6.184;2023-04-28T07:01:21;98666.44;;;19.00;49.66
50125;BME280;36023;48.670;6.184;2023-04-28T07:03:47;98667.28;;;19.01;49.54
50125;BME280;36023;48.670;6.184;2023-04-28T07:06:13;98671.69;;;19.00;49.69
50125;BME280;36023;48.670;6.184;2023-04-28T07:08:42;98686.59;;;19.00;49.52
50125;BME280;36023;48.670;6.184;2023-04-28T07:11:08;98690.22;;;18.97;49.52
50125;BME280;36023;48.670;6.184;2023-04-28T07:13:34;98692.94;;;18.96;49.37
50125;BME280;36023;48.670;6.184;2023-04-28T07:16:01;98698.19;;;18.96;49.52
50125;BME280;36023;48.670;6.184;2023-04-28T07:18:26;98710.38;;;18.97;49.58
50125;BME280;36023;48.670;6.184;2023-04-28T07:20:52;98704.28;;;18.96;49.52
50125;BME280;36023;48.670;6.184;2023-04-28T07:23:18;98707.84;;;18.95;49.66
50125;BME280;36023;48.670;6.184;2023-04-28T07:25:45;98712.25;;;18.95;49.39
50125;BME280;36023;48.670;6.184;2023-04-28T07:28:12;98711.41;;;18.94;49.60
50125;BME280;36023;48.670;6.184;2023-04-28T07:30:38;98713.19;;;18.93;49.77
50125;BME280;36023;48.670;6.184;2023-04-28T07:33:04;98716.66;;;18.94;49.42
50125;BME280;36023;48.670;6.184;2023-04-28T07:35:30;98719.28;;;18.94;49.71
50125;BME280;36023;48.670;6.184;2023-04-28T07:37:56;98719.28;;;18.94;49.59
50125;BME280;36023;48.670;6.184;2023-04-28T07:40:22;98710.56;;;18.93;49.61
50125;BME280;36023;48.670;6.184;2023-04-28T07:42:49;98713.28;;;18.92;49.78
50125;BME280;36023;48.670;6.184;2023-04-28T07:45:15;98717.69;;;18.91;49.67
50125;BME280;36023;48.670;6.184;2023-04-28T07:47:41;98719.47;;;18.91;49.79
50125;BME280;36023;48.670;6.184;2023-04-28T07:50:10;98723.78;;;18.92;49.41
50125;BME280;36023;48.670;6.184;2023-04-28T07:52:36;98726.31;;;18.93;50.23
50125;BME280;36023;48.670;6.184;2023-04-28T07:55:02;98727.81;;;18.98;50.59
50125;BME280;36023;48.670;6.184;2023-04-28T07:57:29;98732.13;;;18.99;50.87
50125;BME280;36023;48.670;6.184;2023-04-28T07:59:55;98740.66;;;19.02;51.14
50125;BME280;36023;48.670;6.184;2023-04-28T08:02:20;98743.19;;;19.04;51.46
50125;BME280;36023;48.670;6.184;2023-04-28T08:04:46;98744.03;;;19.04;50.95
50125;BME280;36023;48.670;6.184;2023-04-28T08:07:12;98738.31;;;19.12;54.07
50125;BME280;36023;48.670;6.184;2023-04-28T08:09:38;98744.16;;;19.17;53.98
50125;BME280;36023;48.670;6.184;2023-04-28T08:12:08;98746.19;;;19.12;52.54
50125;BME280;36023;48.670;6.184;2023-04-28T08:14:34;98756.06;;;19.08;53.16
50125;BME280;36023;48.670;6.184;2023-04-28T08:17:00;98747.34;;;19.08;53.12
50125;BME280;36023;48.670;6.184;2023-04-28T08:19:25;98754.28;;;19.09;53.40
50125;BME280;36023;48.670;6.184;2023-04-28T08:21:51;98760.47;;;19.08;53.05
50125;BME280;36023;48.670;6.184;2023-04-28T08:24:17;98752.59;;;19.08;54.51
50125;BME280;36023;48.670;6.184;2023-04-28T08:26:43;98754.06;;;19.12;53.92
50125;BME280;36023;48.670;6.184;2023-04-28T08:29:09;98749.78;;;19.11;54.21
50125;BME280;36023;48.670;6.184;2023-04-28T08:31:34;98754.19;;;19.10;53.80
50125;BME280;36023;48.670;6.184;2023-04-28T08:34:00;98753.34;;;19.10;53.99
50125;BME280;36023;48.670;6.184;2023-04-28T08:36:25;98759.44;;;19.10;54.35
50125;BME280;36023;48.670;6.184;2023-04-28T08:38:56;98749.88;;;19.09;54.07
50125;BME280;36023;48.670;6.184;2023-04-28T08:41:25;98757.63;;;19.11;54.72
50125;BME280;36023;48.670;6.184;2023-04-28T08:43:54;98763.84;;;19.10;54.23
50125;BME280;36023;48.670;6.184;2023-04-28T08:46:22;98763.84;;;19.10;54.13
50125;BME280;36023;48.670;6.184;2023-04-28T08:48:50;98763.94;;;19.08;54.30
50125;BME280;36023;48.670;6.184;2023-04-28T08:51:32;98766.47;;;19.10;53.89
50125;BME280;36023;48.670;6.184;2023-04-28T08:54:01;98761.22;;;19.10;54.29
50125;BME280;36023;48.670;6.184;2023-04-28T08:56:32;98763.00;;;19.09;54.25
50125;BME280;36023;48.670;6.184;2023-04-28T08:59:03;98761.22;;;19.10;54.33
50125;BME280;36023;48.670;6.184;2023-04-28T09:01:30;98767.41;;;19.09;54.55
50125;BME280;36023;48.670;6.184;2023-04-28T09:03:56;98760.47;;;19.08;54.45
50125;BME280;36023;48.670;6.184;2023-04-28T09:06:24;98772.75;;;19.07;54.34
50125;BME280;36023;48.670;6.184;2023-04-28T09:08:53;98762.31;;;19.06;54.33
50125;BME280;36023;48.670;6.184;2023-04-28T09:11:18;98765.78;;;19.06;54.46
50125;BME280;36023;48.670;6.184;2023-04-28T09:13:45;98764.94;;;19.06;54.34
50125;BME280;36023;48.670;6.184;2023-04-28T09:16:11;98760.63;;;19.05;54.52
50125;BME280;36023;48.670;6.184;2023-04-28T09:18:37;98758.94;;;19.04;54.27
50125;BME280;36023;48.670;6.184;2023-04-28T09:23:33;98757.25;;;19.03;54.11
50125;BME280;36023;48.670;6.184;2023-04-28T09:26:04;98766.91;;;19.02;54.11
50125;BME280;36023;48.670;6.184;2023-04-28T09:28:31;98774.78;;;19.02;54.04
50125;BME280;36023;48.670;6.184;2023-04-28T09:30:57;98771.31;;;19.02;54.02
50125;BME280;36023;48.670;6.184;2023-04-28T09:33:23;98767.00;;;19.01;53.90
50125;BME280;36023;48.670;6.184;2023-04-28T09:35:49;98766.06;;;19.02;54.15
50125;BME280;36023;48.670;6.184;2023-04-28T09:38:15;98760.81;;;19.02;53.91
50125;BME280;36023;48.670;6.184;2023-04-28T09:41:01;98765.22;;;19.01;54.24
50125;BME280;36023;48.670;6.184;2023-04-28T09:45:54;98764.28;;;19.02;54.01
50125;BME280;36023;48.670;6.184;2023-04-28T09:48:35;98765.13;;;19.03;53.91
50125;BME280;36023;48.670;6.184;2023-04-28T09:51:06;98761.75;;;19.01;54.01
50125;BME280;36023;48.670;6.184;2023-04-28T09:53:33;98759.97;;;19.01;53.96
50125;BME280;36023;48.670;6.184;2023-04-28T09:56:01;98768.69;;;19.02;54.02
50125;BME280;36023;48.670;6.184;2023-04-28T09:58:29;98769.63;;;19.01;53.99
50125;BME280;36023;48.670;6.184;2023-04-28T10:00:58;98765.31;;;19.00;54.01
50125;BME280;36023;48.670;6.184;2023-04-28T10:03:26;98756.59;;;18.99;53.98
50125;BME280;36023;48.670;6.184;2023-04-28T10:05:52;98763.53;;;19.00;54.08
50125;BME280;36023;48.670;6.184;2023-04-28T10:08:20;98752.09;;;19.01;54.04
50125;BME280;36023;48.670;6.184;2023-04-28T10:10:47;98761.75;;;19.01;54.01
50125;BME280;36023;48.670;6.184;2023-04-28T10:13:15;98749.56;;;19.00;54.02
50125;BME280;36023;48.670;6.184;2023-04-28T10:15:42;98757.34;;;19.01;54.07
50125;BME280;36023;48.670;6.184;2023-04-28T10:18:08;98750.41;;;19.00;54.13
50125;BME280;36023;48.670;6.184;2023-04-28T10:20:33;98754.72;;;19.01;54.55
50125;BME280;36023;48.670;6.184;2023-04-28T10:26:09;98751.25;;;19.01;54.20
50125;BME280;36023;48.670;6.184;2023-04-28T10:28:36;98753.97;;;18.99;53.94
50125;BME280;36023;48.670;6.184;2023-04-28T10:33:36;98754.72;;;19.01;54.36
50125;BME280;36023;48.670;6.184;2023-04-28T10:36:01;98746.84;;;19.01;54.21
50125;BME280;36023;48.670;6.184;2023-04-28T10:38:28;98754.63;;;19.03;54.19
50125;BME280;36023;48.670;6.184;2023-04-28T10:40:54;98753.78;;;19.02;54.36
50125;BME280;36023;48.670;6.184;2023-04-28T10:56:14;98742.25;;;19.05;54.57
50125;BME280;36023;48.670;6.184;2023-04-28T10:58:49;98745.91;;;19.02;54.04
50125;BME280;36023;48.670;6.184;2023-04-28T11:04:08;98741.50;;;19.03;54.30
50125;BME280;36023;48.670;6.184;2023-04-28T11:06:44;98741.50;;;19.03;54.02
50125;BME280;36023;48.670;6.184;2023-04-28T11:16:50;98750.31;;;19.02;54.36
50125;BME280;36023;48.670;6.184;2023-04-28T11:19:21;98747.69;;;19.02;54.47
50125;BME280;36023;48.670;6.184;2023-04-28T11:21:48;98740.66;;;19.02;54.33
50125;BME280;36023;48.670;6.184;2023-04-28T11:24:15;98736.25;;;19.03;54.74
50125;BME280;36023;48.670;6.184;2023-04-28T11:26:42;98736.25;;;19.03;54.96
50125;BME280;36023;48.670;6.184;2023-04-28T11:29:08;98745.06;;;19.02;54.61
50125;BME280;36023;48.670;6.184;2023-04-28T11:31:35;98736.25;;;19.03;54.95
50125;BME280;36023;48.670;6.184;2023-04-28T11:34:09;98738.03;;;19.02;54.67
50125;BME280;36023;48.670;6.184;2023-04-28T11:36:44;98736.25;;;19.03;54.76
50125;BME280;36023;48.670;6.184;2023-04-28T11:39:12;98728.28;;;19.04;55.09
50125;BME280;36023;48.670;6.184;2023-04-28T11:41:39;98728.28;;;19.04;55.22
50125;BME280;36023;48.670;6.184;2023-04-28T11:44:17;98717.88;;;19.03;55.11
50125;BME280;36023;48.670;6.184;2023-04-28T11:46:53;98717.03;;;19.02;54.97
50125;BME280;36023;48.670;6.184;2023-04-28T11:49:45;98716.00;;;19.05;55.29
50125;BME280;36023;48.670;6.184;2023-04-28T11:52:11;98716.00;;;19.05;55.23
50125;BME280;36023;48.670;6.184;2023-04-28T11:54:38;98711.59;;;19.05;55.38
50125;BME280;36023;48.670;6.184;2023-04-28T11:57:04;98705.50;;;19.05;55.45
50125;BME280;36023;48.670;6.184;2023-04-28T11:59:33;98713.38;;;19.05;55.20
50125;BME280;36023;48.670;6.184;2023-04-28T12:02:03;98706.34;;;19.05;55.58
50125;BME280;36023;48.670;6.184;2023-04-28T12:04:39;98710.66;;;19.06;55.50
50125;BME280;36023;48.670;6.184;2023-04-28T12:07:06;98704.56;;;19.06;55.47
50125;BME280;36023;48.670;6.184;2023-04-28T12:09:36;98701.19;;;19.04;55.50
50125;BME280;36023;48.670;6.184;2023-04-28T12:12:09;98703.72;;;19.05;55.71
50125;BME280;36023;48.670;6.184;2023-04-28T12:17:30;98694.16;;;19.04;55.54
50125;BME280;36023;48.670;6.184;2023-04-28T12:19:57;98695.00;;;19.05;55.48
50125;BME280;36023;48.670;6.184;2023-04-28T12:22:23;98691.53;;;19.04;55.75
50125;BME280;36023;48.670;6.184;2023-04-28T12:30:29;98688.06;;;19.04;55.77
50125;BME280;36023;48.670;6.184;2023-04-28T12:32:54;98693.31;;;19.04;55.70
50125;BME280;36023;48.670;6.184;2023-04-28T12:35:21;98689.75;;;19.05;55.84
50125;BME280;36023;48.670;6.184;2023-04-28T12:37:46;98690.69;;;19.04;55.60
50125;BME280;36023;48.670;6.184;2023-04-28T12:40:12;98688.91;;;19.04;55.46
50125;BME280;36023;48.670;6.184;2023-04-28T12:42:39;98684.50;;;19.05;55.77
50125;BME280;36023;48.670;6.184;2023-04-28T12:45:05;98688.81;;;19.06;55.90
50125;BME280;36023;48.670;6.184;2023-04-28T12:47:31;98692.28;;;19.06;55.68
50125;BME280;36023;48.670;6.184;2023-04-28T12:49:56;98697.53;;;19.06;55.77
50125;BME280;36023;48.670;6.184;2023-04-28T12:52:21;98700.16;;;19.06;55.95
50125;BME280;36023;48.670;6.184;2023-04-28T12:54:47;98700.16;;;19.06;55.91
50125;BME280;36023;48.670;6.184;2023-04-28T12:57:13;98701.03;;;19.07;56.22
50125;BME280;36023;48.670;6.184;2023-04-28T12:59:40;98707.13;;;19.07;56.31
50125;BME280;36023;48.670;6.184;2023-04-28T13:02:07;98706.28;;;19.07;55.88
50125;BME280;36023;48.670;6.184;2023-04-28T13:04:33;98701.88;;;19.07;55.74
50125;BME280;36023;48.670;6.184;2023-04-28T13:06:59;98703.66;;;19.07;55.81
50125;BME280;36023;48.670;6.184;2023-04-28T13:09:24;98713.22;;;19.08;55.86
50125;BME280;36023;48.670;6.184;2023-04-28T13:11:52;98704.50;;;19.07;55.78
50125;BME280;36023;48.670;6.184;2023-04-28T13:14:21;98705.34;;;19.08;55.90
50125;BME280;36023;48.670;6.184;2023-04-28T13:16:47;98698.31;;;19.08;56.07
50125;BME280;36023;48.670;6.184;2023-04-28T13:19:12;98694.84;;;19.08;55.94
50125;BME280;36023;48.670;6.184;2023-04-28T13:21:39;98692.22;;;19.08;56.36
50125;BME280;36023;48.670;6.184;2023-04-28T13:24:06;98685.19;;;19.08;56.22
50125;BME280;36023;48.670;6.184;2023-04-28T13:26:35;98683.41;;;19.09;56.50
50125;BME280;36023;48.670;6.184;2023-04-28T13:29:02;98673.66;;;19.11;56.56
50125;BME280;36023;48.670;6.184;2023-04-28T13:31:29;98669.25;;;19.11;56.77
50125;BME280;36023;48.670;6.184;2023-04-28T13:33:55;98674.50;;;19.11;56.61
50125;BME280;36023;48.670;6.184;2023-04-28T13:36:20;98662.31;;;19.10;56.64
50125;BME280;36023;48.670;6.184;2023-04-28T13:38:46;98660.53;;;19.11;56.53
50125;BME280;36023;48.670;6.184;2023-04-28T13:41:13;98650.97;;;19.10;56.78
50125;BME280;36023;48.670;6.184;2023-04-28T13:43:39;98664.09;;;19.10;56.62